sensor_id;sensor_type;location;lat;lon;timestamp;P1;durP1;ratioP1;P2;durP2;ratioP2
17173;SDS011;8702;48.130;-1.696;2023-05-01T00:01:13;8.73;;;7.83;;
17173;SDS011;8702;48.130;-1.696;2023-05-01T00:03:41;9.50;;;7.53;;
17173;SDS011;8702;48.130;-1.696;2023-05-01T00:06:09;9.27;;;7.10;;
17173;SDS011;8702;48.130;-1.696;2023-05-01T00:08:37;10.53;;;8.43;;
17173;SDS011;8702;48.130;-1.696;2023-05-01T00:11:04;9.27;;;7.30;;
17173;SDS011;8702;48.130;-1.696;2023-05-01T00:13:38;7.30;;;6.57;;
17173;SDS011;8702;48.130;-1.696;2023-05-01T00:16:08;8.77;;;7.40;;
17173;SDS011;8702;48.130;-1.696;2023-05-01T00:18:40;8.30;;;6.70;;
17173;SDS011;8702;48.130;-1.696;2023-05-01T00:21:07;9.73;;;8.70;;
17173;SDS011;8702;48.130;-1.696;2023-05-01T00:23:36;9.33;;;7.57;;
17173;SDS011;8702;48.130;-1.696;2023-05-01T00:26:04;9.57;;;7.00;;
17173;SDS011;8702;48.130;-1.696;2023-05-01T00:28:31;8.07;;;7.10;;
17173;SDS011;8702;48.130;-1.696;2023-05-01T00:30:58;10.73;;;7.67;;
17173;SDS011;8702;48.130;-1.696;2023-05-01T00:33:25;9.53;;;7.93;;
17173;SDS011;8702;48.130;-1.696;2023-05-01T00:35:52;8.90;;;7.23;;
17173;SDS011;8702;48.130;-1.696;2023-05-01T00:38:22;8.07;;;7.07;;
17173;SDS011;8702;48.130;-1.696;2023-05-01T00:40:49;8.80;;;7.83;;
17173;SDS011;8702;48.130;-1.696;2023-05-01T00:43:17;8.20;;;7.33;;
17173;SDS011;8702;48.130;-1.696;2023-05-01T00:45:45;10.33;;;7.43;;
17173;SDS011;8702;48.130;-1.696;2023-05-01T00:48:12;9.50;;;7.33;;
17173;SDS011;8702;48.130;-1.696;2023-05-01T00:50:40;10.53;;;6.83;;
17173;SDS011;8702;48.130;-1.696;2023-05-01T00:53:09;7.00;;;5.50;;
17173;SDS011;8702;48.130;-1.696;2023-05-01T00:55:38;8.67;;;5.03;;
17173;SDS011;8702;48.130;-1.696;2023-05-01T00:58:07;8.63;;;5.47;;
17173;SDS011;8702;48.130;-1.696;2023-05-01T01:00:35;7.57;;;5.37;;
17173;SDS011;8702;48.130;-1.696;2023-05-01T01:03:03;5.97;;;4.90;;
17173;SDS011;8702;48.130;-1.696;2023-05-01T01:05:30;6.47;;;4.27;;
17173;SDS011;8702;48.130;-1.696;2023-05-01T01:08:03;5.67;;;4.23;;
17173;SDS011;8702;48.130;-1.696;2023-05-01T01:10:51;4.63;;;4.13;;
17173;SDS011;8702;48.130;-1.696;2023-05-01T01:13:26;4.73;;;4.23;;
17173;SDS011;8702;48.130;-1.696;2023-05-01T01:15:58;4.60;;;3.90;;
17173;SDS011;8702;48.130;-1.696;2023-05-01T01:18:34;5.70;;;4.30;;
17173;SDS011;8702;48.130;-1.696;2023-05-01T01:21:07;5.70;;;4.17;;
17173;SDS011;8702;48.130;-1.696;2023-05-01T01:23:45;5.30;;;4.00;;
17173;SDS011;8702;48.130;-1.696;2023-05-01T01:26:50;7.10;;;4.10;;
17173;SDS011;8702;48.130;-1.696;2023-05-01T01:30:01;6.20;;;4.80;;
17173;SDS011;8702;48.130;-1.696;2023-05-01T01:32:59;6.43;;;4.13;;
17173;SDS011;8702;48.130;-1.696;2023-05-01T01:35:45;7.97;;;4.87;;
17173;SDS011;8702;48.130;-1.696;2023-05-01T01:38:21;5.47;;;4.90;;
17173;SDS011;8702;48.130;-1.696;2023-05-01T01:40:58;7.20;;;3.90;;
17173;SDS011;8702;48.130;-1.696;2023-05-01T01:43:34;5.40;;;3.70;;
17173;SDS011;8702;48.130;-1.696;2023-05-01T01:46:04;4.47;;;3.60;;
17173;SDS011;8702;48.130;-1.696;2023-05-01T01:48:36;3.67;;;3.23;;
17173;SDS011;8702;48.130;-1.696;2023-05-01T01:51:12;5.00;;;3.60;;
17173;SDS011;8702;48.130;-1.696;2023-05-01T01:53:43;4.43;;;3.47;;
17173;SDS011;8702;48.130;-1.696;2023-05-01T01:56:11;4.10;;;3.33;;
17173;SDS011;8702;48.130;-1.696;2023-05-01T01:58:42;5.00;;;3.53;;
17173;SDS011;8702;48.130;-1.696;2023-05-01T02:01:10;6.53;;;2.90;;
17173;SDS011;8702;48.130;-1.696;2023-05-01T02:03:40;3.90;;;3.23;;
17173;SDS011;8702;48.130;-1.696;2023-05-01T02:06:20;5.07;;;3.23;;
17173;SDS011;8702;48.130;-1.696;2023-05-01T02:08:48;6.17;;;3.23;;
17173;SDS011;8702;48.130;-1.696;2023-05-01T02:11:19;5.10;;;3.30;;
17173;SDS011;8702;48.130;-1.696;2023-05-01T02:13:48;5.00;;;3.07;;
17173;SDS011;8702;48.130;-1.696;2023-05-01T02:16:17;3.67;;;3.20;;
17173;SDS011;8702;48.130;-1.696;2023-05-01T02:18:45;4.97;;;3.67;;
17173;SDS011;8702;48.130;-1.696;2023-05-01T02:21:14;4.57;;;3.23;;
17173;SDS011;8702;48.130;-1.696;2023-05-01T02:23:45;4.07;;;3.67;;
17173;SDS011;8702;48.130;-1.696;2023-05-01T02:26:15;5.50;;;3.50;;
17173;SDS011;8702;48.130;-1.696;2023-05-01T02:28:44;5.17;;;3.37;;
17173;SDS011;8702;48.130;-1.696;2023-05-01T02:31:10;4.07;;;3.67;;
17173;SDS011;8702;48.130;-1.696;2023-05-01T02:33:37;6.00;;;3.73;;
17173;SDS011;8702;48.130;-1.696;2023-05-01T02:36:05;4.80;;;3.30;;
17173;SDS011;8702;48.130;-1.696;2023-05-01T02:38:32;5.10;;;3.53;;
17173;SDS011;8702;48.130;-1.696;2023-05-01T02:41:01;5.27;;;3.50;;
17173;SDS011;8702;48.130;-1.696;2023-05-01T02:43:29;4.87;;;3.60;;
17173;SDS011;8702;48.130;-1.696;2023-05-01T02:45:58;4.30;;;3.80;;
17173;SDS011;8702;48.130;-1.696;2023-05-01T02:48:27;5.37;;;4.10;;
17173;SDS011;8702;48.130;-1.696;2023-05-01T02:50:56;5.43;;;4.03;;
17173;SDS011;8702;48.130;-1.696;2023-05-01T02:53:25;5.23;;;3.90;;
17173;SDS011;8702;48.130;-1.696;2023-05-01T02:55:52;6.33;;;4.17;;
17173;SDS011;8702;48.130;-1.696;2023-05-01T02:58:22;5.90;;;4.00;;
17173;SDS011;8702;48.130;-1.696;2023-05-01T03:00:49;6.70;;;3.93;;
17173;SDS011;8702;48.130;-1.696;2023-05-01T03:03:16;4.43;;;3.67;;
17173;SDS011;8702;48.130;-1.696;2023-05-01T03:05:43;5.10;;;3.90;;
17173;SDS011;8702;48.130;-1.696;2023-05-01T03:08:11;5.57;;;4.13;;
17173;SDS011;8702;48.130;-1.696;2023-05-01T03:10:38;4.60;;;3.50;;
17173;SDS011;8702;48.130;-1.696;2023-05-01T03:13:07;4.83;;;3.87;;
17173;SDS011;8702;48.130;-1.696;2023-05-01T03:15:36;5.63;;;4.20;;
17173;SDS011;8702;48.130;-1.696;2023-05-01T03:18:05;5.33;;;4.10;;
17173;SDS011;8702;48.130;-1.696;2023-05-01T03:20:33;5.40;;;4.13;;
17173;SDS011;8702;48.130;-1.696;2023-05-01T03:23:00;7.27;;;4.47;;
17173;SDS011;8702;48.130;-1.696;2023-05-01T03:25:27;7.17;;;4.30;;
17173;SDS011;8702;48.130;-1.696;2023-05-01T03:27:54;6.40;;;4.03;;
17173;SDS011;8702;48.130;-1.696;2023-05-01T03:30:21;5.33;;;4.50;;
17173;SDS011;8702;48.130;-1.696;2023-05-01T03:32:50;6.03;;;4.77;;
17173;SDS011;8702;48.130;-1.696;2023-05-01T03:35:17;5.27;;;4.27;;
17173;SDS011;8702;48.130;-1.696;2023-05-01T03:37:44;6.43;;;4.20;;
17173;SDS011;8702;48.130;-1.696;2023-05-01T03:40:11;5.37;;;4.33;;
17173;SDS011;8702;48.130;-1.696;2023-05-01T03:42:38;6.43;;;4.63;;
17173;SDS011;8702;48.130;-1.696;2023-05-01T03:45:06;6.03;;;4.53;;
17173;SDS011;8702;48.130;-1.696;2023-05-01T03:47:33;7.03;;;4.80;;
17173;SDS011;8702;48.130;-1.696;2023-05-01T03:50:02;5.87;;;5.10;;
17173;SDS011;8702;48.130;-1.696;2023-05-01T03:52:29;6.03;;;5.00;;
17173;SDS011;8702;48.130;-1.696;2023-05-01T03:54:56;6.90;;;5.27;;
17173;SDS011;8702;48.130;-1.696;2023-05-01T03:57:23;6.90;;;5.07;;
17173;SDS011;8702;48.130;-1.696;2023-05-01T03:59:51;6.73;;;5.07;;
17173;SDS011;8702;48.130;-1.696;2023-05-01T04:02:18;6.63;;;5.43;;
17173;SDS011;8702;48.130;-1.696;2023-05-01T04:04:45;6.90;;;5.40;;
17173;SDS011;8702;48.130;-1.696;2023-05-01T04:07:13;8.27;;;5.80;;
17173;SDS011;8702;48.130;-1.696;2023-05-01T04:09:40;9.30;;;5.83;;
17173;SDS011;8702;48.130;-1.696;2023-05-01T04:12:07;7.93;;;6.13;;
17173;SDS011;8702;48.130;-1.696;2023-05-01T04:14:34;8.43;;;6.30;;
17173;SDS011;8702;48.130;-1.696;2023-05-01T04:17:01;8.57;;;6.40;;
17173;SDS011;8702;48.130;-1.696;2023-05-01T04:19:28;10.30;;;6.43;;
17173;SDS011;8702;48.130;-1.696;2023-05-01T04:21:55;8.70;;;6.03;;
17173;SDS011;8702;48.130;-1.696;2023-05-01T04:24:23;9.27;;;6.20;;
17173;SDS011;8702;48.130;-1.696;2023-05-01T04:26:50;8.17;;;5.83;;
17173;SDS011;8702;48.130;-1.696;2023-05-01T04:29:17;9.17;;;5.63;;
17173;SDS011;8702;48.130;-1.696;2023-05-01T04:31:45;9.00;;;6.57;;
17173;SDS011;8702;48.130;-1.696;2023-05-01T04:34:11;8.50;;;6.30;;
17173;SDS011;8702;48.130;-1.696;2023-05-01T04:36:39;11.77;;;6.80;;
17173;SDS011;8702;48.130;-1.696;2023-05-01T04:39:06;8.83;;;5.67;;
17173;SDS011;8702;48.130;-1.696;2023-05-01T04:41:34;8.30;;;5.53;;
17173;SDS011;8702;48.130;-1.696;2023-05-01T04:44:01;9.83;;;5.80;;
17173;SDS011;8702;48.130;-1.696;2023-05-01T04:46:28;10.60;;;6.43;;
17173;SDS011;8702;48.130;-1.696;2023-05-01T04:48:55;7.43;;;5.63;;
17173;SDS011;8702;48.130;-1.696;2023-05-01T04:51:22;11.27;;;5.87;;
17173;SDS011;8702;48.130;-1.696;2023-05-01T04:53:48;11.90;;;6.23;;
17173;SDS011;8702;48.130;-1.696;2023-05-01T04:56:15;9.70;;;5.73;;
17173;SDS011;8702;48.130;-1.696;2023-05-01T04:58:44;12.37;;;6.10;;
17173;SDS011;8702;48.130;-1.696;2023-05-01T05:01:11;10.10;;;5.80;;
17173;SDS011;8702;48.130;-1.696;2023-05-01T05:03:38;14.67;;;6.63;;
17173;SDS011;8702;48.130;-1.696;2023-05-01T05:06:06;11.20;;;6.03;;
17173;SDS011;8702;48.130;-1.696;2023-05-01T05:08:33;12.13;;;6.70;;
17173;SDS011;8702;48.130;-1.696;2023-05-01T05:11:00;10.17;;;6.37;;
17173;SDS011;8702;48.130;-1.696;2023-05-01T05:13:27;10.60;;;6.07;;
17173;SDS011;8702;48.130;-1.696;2023-05-01T05:15:55;8.57;;;6.07;;
17173;SDS011;8702;48.130;-1.696;2023-05-01T05:18:22;11.30;;;5.77;;
17173;SDS011;8702;48.130;-1.696;2023-05-01T05:20:49;7.53;;;5.97;;
17173;SDS011;8702;48.130;-1.696;2023-05-01T05:23:16;11.43;;;6.17;;
17173;SDS011;8702;48.130;-1.696;2023-05-01T05:25:43;11.53;;;6.80;;
17173;SDS011;8702;48.130;-1.696;2023-05-01T05:28:10;11.03;;;6.37;;
17173;SDS011;8702;48.130;-1.696;2023-05-01T05:30:37;12.53;;;6.93;;
17173;SDS011;8702;48.130;-1.696;2023-05-01T05:33:05;8.57;;;6.30;;
17173;SDS011;8702;48.130;-1.696;2023-05-01T05:35:33;11.13;;;6.80;;
17173;SDS011;8702;48.130;-1.696;2023-05-01T05:38:00;11.03;;;6.00;;
17173;SDS011;8702;48.130;-1.696;2023-05-01T05:40:27;11.63;;;6.43;;
17173;SDS011;8702;48.130;-1.696;2023-05-01T05:42:54;11.30;;;6.77;;
17173;SDS011;8702;48.130;-1.696;2023-05-01T05:45:21;12.10;;;6.57;;
17173;SDS011;8702;48.130;-1.696;2023-05-01T05:47:48;12.33;;;6.97;;
17173;SDS011;8702;48.130;-1.696;2023-05-01T05:50:17;11.57;;;6.50;;
17173;SDS011;8702;48.130;-1.696;2023-05-01T05:52:44;8.37;;;5.77;;
17173;SDS011;8702;48.130;-1.696;2023-05-01T05:55:11;11.93;;;6.37;;
17173;SDS011;8702;48.130;-1.696;2023-05-01T05:57:38;11.00;;;6.07;;
17173;SDS011;8702;48.130;-1.696;2023-05-01T06:00:06;10.20;;;6.00;;
17173;SDS011;8702;48.130;-1.696;2023-05-01T06:02:34;11.50;;;6.27;;
17173;SDS011;8702;48.130;-1.696;2023-05-01T06:05:01;13.37;;;6.77;;
17173;SDS011;8702;48.130;-1.696;2023-05-01T06:07:30;9.70;;;5.97;;
17173;SDS011;8702;48.130;-1.696;2023-05-01T06:09:57;12.93;;;6.10;;
17173;SDS011;8702;48.130;-1.696;2023-05-01T06:12:28;11.53;;;5.93;;
17173;SDS011;8702;48.130;-1.696;2023-05-01T06:14:55;9.13;;;5.27;;
17173;SDS011;8702;48.130;-1.696;2023-05-01T06:17:22;11.70;;;5.90;;
17173;SDS011;8702;48.130;-1.696;2023-05-01T06:19:50;11.73;;;6.07;;
17173;SDS011;8702;48.130;-1.696;2023-05-01T06:22:17;12.57;;;5.77;;
17173;SDS011;8702;48.130;-1.696;2023-05-01T06:24:45;11.93;;;5.60;;
17173;SDS011;8702;48.130;-1.696;2023-05-01T06:27:12;10.77;;;5.60;;
17173;SDS011;8702;48.130;-1.696;2023-05-01T06:29:39;10.83;;;5.20;;
17173;SDS011;8702;48.130;-1.696;2023-05-01T06:32:06;13.53;;;5.67;;
17173;SDS011;8702;48.130;-1.696;2023-05-01T06:34:33;10.00;;;4.60;;
17173;SDS011;8702;48.130;-1.696;2023-05-01T06:37:00;9.37;;;4.80;;
17173;SDS011;8702;48.130;-1.696;2023-05-01T06:39:29;9.93;;;4.50;;
17173;SDS011;8702;48.130;-1.696;2023-05-01T06:41:57;12.03;;;4.90;;
17173;SDS011;8702;48.130;-1.696;2023-05-01T06:44:25;12.03;;;5.13;;
17173;SDS011;8702;48.130;-1.696;2023-05-01T06:46:52;11.40;;;4.20;;
17173;SDS011;8702;48.130;-1.696;2023-05-01T06:49:20;13.50;;;4.67;;
17173;SDS011;8702;48.130;-1.696;2023-05-01T06:51:48;13.10;;;4.50;;
17173;SDS011;8702;48.130;-1.696;2023-05-01T06:54:14;13.23;;;5.23;;
17173;SDS011;8702;48.130;-1.696;2023-05-01T06:56:42;7.87;;;4.10;;
17173;SDS011;8702;48.130;-1.696;2023-05-01T06:59:10;10.13;;;4.83;;
17173;SDS011;8702;48.130;-1.696;2023-05-01T07:01:37;16.30;;;4.70;;
17173;SDS011;8702;48.130;-1.696;2023-05-01T07:04:04;9.37;;;4.33;;
17173;SDS011;8702;48.130;-1.696;2023-05-01T07:06:31;9.67;;;4.50;;
17173;SDS011;8702;48.130;-1.696;2023-05-01T07:08:59;11.13;;;4.00;;
17173;SDS011;8702;48.130;-1.696;2023-05-01T07:11:25;8.53;;;3.43;;
17173;SDS011;8702;48.130;-1.696;2023-05-01T07:13:52;10.57;;;3.80;;
17173;SDS011;8702;48.130;-1.696;2023-05-01T07:16:21;14.67;;;4.07;;
17173;SDS011;8702;48.130;-1.696;2023-05-01T07:18:48;9.83;;;4.00;;
17173;SDS011;8702;48.130;-1.696;2023-05-01T07:21:15;14.60;;;4.27;;
17173;SDS011;8702;48.130;-1.696;2023-05-01T07:23:42;11.50;;;4.40;;
17173;SDS011;8702;48.130;-1.696;2023-05-01T07:26:10;9.83;;;3.90;;
17173;SDS011;8702;48.130;-1.696;2023-05-01T07:28:37;14.23;;;4.17;;
17173;SDS011;8702;48.130;-1.696;2023-05-01T07:31:05;12.13;;;3.93;;
17173;SDS011;8702;48.130;-1.696;2023-05-01T07:33:35;11.13;;;3.83;;
17173;SDS011;8702;48.130;-1.696;2023-05-01T07:36:02;11.33;;;4.07;;
17173;SDS011;8702;48.130;-1.696;2023-05-01T07:38:29;9.23;;;3.87;;
17173;SDS011;8702;48.130;-1.696;2023-05-01T07:40:56;9.60;;;3.57;;
17173;SDS011;8702;48.130;-1.696;2023-05-01T07:43:23;9.77;;;3.50;;
17173;SDS011;8702;48.130;-1.696;2023-05-01T07:45:54;10.57;;;3.40;;
17173;SDS011;8702;48.130;-1.696;2023-05-01T07:48:22;10.03;;;3.60;;
17173;SDS011;8702;48.130;-1.696;2023-05-01T07:50:50;12.17;;;4.00;;
17173;SDS011;8702;48.130;-1.696;2023-05-01T07:53:18;14.27;;;4.27;;
17173;SDS011;8702;48.130;-1.696;2023-05-01T07:55:46;9.87;;;3.10;;
17173;SDS011;8702;48.130;-1.696;2023-05-01T07:58:13;11.87;;;3.80;;
17173;SDS011;8702;48.130;-1.696;2023-05-01T08:00:41;10.47;;;3.33;;
17173;SDS011;8702;48.130;-1.696;2023-05-01T08:03:09;13.90;;;3.83;;
17173;SDS011;8702;48.130;-1.696;2023-05-01T08:05:38;8.90;;;3.43;;
17173;SDS011;8702;48.130;-1.696;2023-05-01T08:08:06;9.53;;;3.90;;
17173;SDS011;8702;48.130;-1.696;2023-05-01T08:10:34;9.23;;;3.73;;
17173;SDS011;8702;48.130;-1.696;2023-05-01T08:13:01;9.00;;;3.37;;
17173;SDS011;8702;48.130;-1.696;2023-05-01T08:15:28;8.63;;;3.33;;
17173;SDS011;8702;48.130;-1.696;2023-05-01T08:17:55;11.63;;;3.47;;
17173;SDS011;8702;48.130;-1.696;2023-05-01T08:20:21;12.20;;;3.10;;
17173;SDS011;8702;48.130;-1.696;2023-05-01T08:22:48;5.77;;;2.77;;
17173;SDS011;8702;48.130;-1.696;2023-05-01T08:25:17;9.63;;;2.97;;
17173;SDS011;8702;48.130;-1.696;2023-05-01T08:27:44;10.57;;;2.97;;
17173;SDS011;8702;48.130;-1.696;2023-05-01T08:30:11;8.07;;;2.87;;
17173;SDS011;8702;48.130;-1.696;2023-05-01T08:32:38;11.37;;;3.23;;
17173;SDS011;8702;48.130;-1.696;2023-05-01T08:35:05;8.40;;;3.30;;
17173;SDS011;8702;48.130;-1.696;2023-05-01T08:37:32;9.33;;;3.10;;
17173;SDS011;8702;48.130;-1.696;2023-05-01T08:39:59;10.00;;;3.47;;
17173;SDS011;8702;48.130;-1.696;2023-05-01T08:42:33;10.57;;;2.87;;
17173;SDS011;8702;48.130;-1.696;2023-05-01T08:45:01;9.63;;;3.10;;
17173;SDS011;8702;48.130;-1.696;2023-05-01T08:47:29;6.53;;;2.53;;
17173;SDS011;8702;48.130;-1.696;2023-05-01T08:49:57;8.90;;;2.83;;
17173;SDS011;8702;48.130;-1.696;2023-05-01T08:52:26;6.70;;;2.70;;
17173;SDS011;8702;48.130;-1.696;2023-05-01T08:54:55;8.33;;;2.73;;
17173;SDS011;8702;48.130;-1.696;2023-05-01T08:57:25;6.37;;;2.97;;
17173;SDS011;8702;48.130;-1.696;2023-05-01T08:59:57;6.87;;;2.40;;
17173;SDS011;8702;48.130;-1.696;2023-05-01T09:02:25;7.40;;;2.87;;
17173;SDS011;8702;48.130;-1.696;2023-05-01T09:04:53;8.33;;;2.50;;
17173;SDS011;8702;48.130;-1.696;2023-05-01T09:07:20;8.63;;;2.53;;
17173;SDS011;8702;48.130;-1.696;2023-05-01T09:09:47;7.07;;;2.70;;
17173;SDS011;8702;48.130;-1.696;2023-05-01T09:12:17;7.87;;;2.50;;
17173;SDS011;8702;48.130;-1.696;2023-05-01T09:14:47;5.13;;;2.30;;
17173;SDS011;8702;48.130;-1.696;2023-05-01T09:17:16;11.90;;;2.80;;
17173;SDS011;8702;48.130;-1.696;2023-05-01T09:19:43;5.63;;;2.83;;
17173;SDS011;8702;48.130;-1.696;2023-05-01T09:22:10;10.17;;;2.80;;
17173;SDS011;8702;48.130;-1.696;2023-05-01T09:24:38;7.63;;;2.43;;
17173;SDS011;8702;48.130;-1.696;2023-05-01T09:27:05;8.33;;;2.40;;
17173;SDS011;8702;48.130;-1.696;2023-05-01T09:29:37;9.90;;;2.80;;
17173;SDS011;8702;48.130;-1.696;2023-05-01T09:32:12;9.67;;;2.90;;
17173;SDS011;8702;48.130;-1.696;2023-05-01T09:34:41;7.27;;;2.70;;
17173;SDS011;8702;48.130;-1.696;2023-05-01T09:37:10;8.13;;;2.87;;
17173;SDS011;8702;48.130;-1.696;2023-05-01T09:39:39;6.80;;;2.27;;
17173;SDS011;8702;48.130;-1.696;2023-05-01T09:42:06;6.47;;;2.43;;
17173;SDS011;8702;48.130;-1.696;2023-05-01T09:44:39;7.03;;;2.50;;
17173;SDS011;8702;48.130;-1.696;2023-05-01T09:47:07;6.57;;;2.53;;
17173;SDS011;8702;48.130;-1.696;2023-05-01T09:49:44;7.90;;;2.33;;
17173;SDS011;8702;48.130;-1.696;2023-05-01T09:52:12;8.07;;;2.47;;
17173;SDS011;8702;48.130;-1.696;2023-05-01T09:54:39;7.50;;;2.43;;
17173;SDS011;8702;48.130;-1.696;2023-05-01T09:57:06;5.13;;;2.30;;
17173;SDS011;8702;48.130;-1.696;2023-05-01T09:59:34;8.30;;;2.67;;
17173;SDS011;8702;48.130;-1.696;2023-05-01T10:02:01;5.67;;;2.33;;
17173;SDS011;8702;48.130;-1.696;2023-05-01T10:04:28;8.90;;;2.40;;
17173;SDS011;8702;48.130;-1.696;2023-05-01T10:06:58;8.17;;;2.50;;
17173;SDS011;8702;48.130;-1.696;2023-05-01T10:09:35;6.37;;;2.37;;
17173;SDS011;8702;48.130;-1.696;2023-05-01T10:12:02;5.47;;;2.10;;
17173;SDS011;8702;48.130;-1.696;2023-05-01T10:14:30;5.73;;;1.83;;
17173;SDS011;8702;48.130;-1.696;2023-05-01T10:17:05;6.87;;;2.20;;
17173;SDS011;8702;48.130;-1.696;2023-05-01T10:19:43;6.83;;;1.90;;
17173;SDS011;8702;48.130;-1.696;2023-05-01T10:22:13;5.87;;;2.10;;
17173;SDS011;8702;48.130;-1.696;2023-05-01T10:24:41;4.63;;;2.43;;
17173;SDS011;8702;48.130;-1.696;2023-05-01T10:27:09;6.10;;;2.07;;
17173;SDS011;8702;48.130;-1.696;2023-05-01T10:29:39;7.10;;;2.77;;
17173;SDS011;8702;48.130;-1.696;2023-05-01T10:32:06;4.70;;;2.10;;
17173;SDS011;8702;48.130;-1.696;2023-05-01T10:34:37;9.37;;;2.50;;
17173;SDS011;8702;48.130;-1.696;2023-05-01T10:37:08;8.73;;;2.40;;
17173;SDS011;8702;48.130;-1.696;2023-05-01T10:39:40;8.73;;;2.50;;
17173;SDS011;8702;48.130;-1.696;2023-05-01T10:42:07;7.40;;;2.37;;
17173;SDS011;8702;48.130;-1.696;2023-05-01T10:44:38;10.47;;;3.10;;
17173;SDS011;8702;48.130;-1.696;2023-05-01T10:50:10;9.83;;;2.83;;
17173;SDS011;8702;48.130;-1.696;2023-05-01T10:55:45;8.00;;;2.73;;
17173;SDS011;8702;48.130;-1.696;2023-05-01T11:01:26;8.03;;;2.30;;
17173;SDS011;8702;48.130;-1.696;2023-05-01T11:03:55;7.27;;;2.30;;
17173;SDS011;8702;48.130;-1.696;2023-05-01T11:06:23;5.83;;;2.60;;
17173;SDS011;8702;48.130;-1.696;2023-05-01T11:08:51;5.87;;;2.47;;
17173;SDS011;8702;48.130;-1.696;2023-05-01T11:14:14;7.33;;;2.80;;
17173;SDS011;8702;48.130;-1.696;2023-05-01T11:16:43;6.60;;;2.10;;
17173;SDS011;8702;48.130;-1.696;2023-05-01T11:22:17;6.60;;;2.07;;
17173;SDS011;8702;48.130;-1.696;2023-05-01T11:24:44;9.50;;;2.37;;
17173;SDS011;8702;48.130;-1.696;2023-05-01T11:27:14;4.63;;;1.73;;
17173;SDS011;8702;48.130;-1.696;2023-05-01T11:29:44;6.60;;;1.83;;
17173;SDS011;8702;48.130;-1.696;2023-05-01T11:32:18;4.97;;;1.97;;
17173;SDS011;8702;48.130;-1.696;2023-05-01T11:34:49;5.17;;;2.03;;
17173;SDS011;8702;48.130;-1.696;2023-05-01T11:37:19;6.00;;;1.70;;
17173;SDS011;8702;48.130;-1.696;2023-05-01T11:40:04;8.27;;;2.10;;
17173;SDS011;8702;48.130;-1.696;2023-05-01T11:42:47;5.40;;;1.80;;
17173;SDS011;8702;48.130;-1.696;2023-05-01T11:45:14;6.80;;;1.90;;
17173;SDS011;8702;48.130;-1.696;2023-05-01T11:47:41;5.77;;;1.43;;
17173;SDS011;8702;48.130;-1.696;2023-05-01T11:50:08;6.47;;;1.90;;
17173;SDS011;8702;48.130;-1.696;2023-05-01T11:52:42;3.93;;;1.80;;
17173;SDS011;8702;48.130;-1.696;2023-05-01T11:55:12;6.90;;;1.70;;
17173;SDS011;8702;48.130;-1.696;2023-05-01T11:57:43;5.53;;;1.73;;
17173;SDS011;8702;48.130;-1.696;2023-05-01T12:00:13;5.53;;;1.70;;
17173;SDS011;8702;48.130;-1.696;2023-05-01T12:02:53;5.13;;;1.73;;
17173;SDS011;8702;48.130;-1.696;2023-05-01T12:05:22;4.43;;;1.60;;
17173;SDS011;8702;48.130;-1.696;2023-05-01T12:07:50;6.63;;;1.93;;
17173;SDS011;8702;48.130;-1.696;2023-05-01T12:10:17;7.13;;;1.80;;
17173;SDS011;8702;48.130;-1.696;2023-05-01T12:12:44;5.70;;;2.03;;
17173;SDS011;8702;48.130;-1.696;2023-05-01T12:15:12;3.37;;;1.40;;
17173;SDS011;8702;48.130;-1.696;2023-05-01T12:17:39;6.90;;;2.00;;
17173;SDS011;8702;48.130;-1.696;2023-05-01T12:20:10;4.63;;;2.03;;
17173;SDS011;8702;48.130;-1.696;2023-05-01T12:22:47;5.60;;;2.17;;
17173;SDS011;8702;48.130;-1.696;2023-05-01T12:25:15;9.43;;;2.37;;
17173;SDS011;8702;48.130;-1.696;2023-05-01T12:27:44;8.10;;;2.23;;
17173;SDS011;8702;48.130;-1.696;2023-05-01T12:30:22;6.40;;;2.03;;
17173;SDS011;8702;48.130;-1.696;2023-05-01T12:32:50;5.20;;;1.60;;
17173;SDS011;8702;48.130;-1.696;2023-05-01T12:35:17;7.57;;;2.10;;
17173;SDS011;8702;48.130;-1.696;2023-05-01T12:37:45;5.27;;;1.80;;
17173;SDS011;8702;48.130;-1.696;2023-05-01T12:40:12;5.00;;;1.60;;
17173;SDS011;8702;48.130;-1.696;2023-05-01T12:42:40;9.83;;;2.20;;
17173;SDS011;8702;48.130;-1.696;2023-05-01T12:45:07;4.73;;;1.77;;
17173;SDS011;8702;48.130;-1.696;2023-05-01T12:47:40;5.70;;;1.97;;
17173;SDS011;8702;48.130;-1.696;2023-05-01T12:50:07;5.47;;;1.70;;
17173;SDS011;8702;48.130;-1.696;2023-05-01T12:52:35;6.37;;;2.10;;
17173;SDS011;8702;48.130;-1.696;2023-05-01T12:55:02;7.63;;;2.33;;
17173;SDS011;8702;48.130;-1.696;2023-05-01T12:57:30;4.10;;;1.80;;
17173;SDS011;8702;48.130;-1.696;2023-05-01T12:59:58;6.77;;;2.20;;
17173;SDS011;8702;48.130;-1.696;2023-05-01T13:02:29;6.43;;;1.97;;
17173;SDS011;8702;48.130;-1.696;2023-05-01T13:07:48;7.83;;;1.97;;
17173;SDS011;8702;48.130;-1.696;2023-05-01T13:10:27;3.57;;;1.50;;
17173;SDS011;8702;48.130;-1.696;2023-05-01T13:12:56;6.73;;;2.20;;
17173;SDS011;8702;48.130;-1.696;2023-05-01T13:15:23;5.83;;;1.83;;
17173;SDS011;8702;48.130;-1.696;2023-05-01T13:17:51;4.50;;;1.60;;
17173;SDS011;8702;48.130;-1.696;2023-05-01T13:20:25;6.67;;;1.80;;
17173;SDS011;8702;48.130;-1.696;2023-05-01T13:22:53;5.60;;;1.80;;
17173;SDS011;8702;48.130;-1.696;2023-05-01T13:25:20;5.20;;;2.03;;
17173;SDS011;8702;48.130;-1.696;2023-05-01T13:27:48;4.83;;;1.77;;
17173;SDS011;8702;48.130;-1.696;2023-05-01T13:30:17;7.27;;;2.03;;
17173;SDS011;8702;48.130;-1.696;2023-05-01T13:32:46;7.43;;;1.97;;
17173;SDS011;8702;48.130;-1.696;2023-05-01T13:35:23;4.93;;;1.93;;
17173;SDS011;8702;48.130;-1.696;2023-05-01T13:37:52;8.83;;;2.20;;
17173;SDS011;8702;48.130;-1.696;2023-05-01T13:40:19;4.93;;;1.70;;
17173;SDS011;8702;48.130;-1.696;2023-05-01T13:42:50;5.13;;;1.70;;
17173;SDS011;8702;48.130;-1.696;2023-05-01T13:45:18;8.03;;;1.97;;
17173;SDS011;8702;48.130;-1.696;2023-05-01T13:47:46;6.20;;;2.27;;
17173;SDS011;8702;48.130;-1.696;2023-05-01T13:50:15;6.87;;;1.93;;
17173;SDS011;8702;48.130;-1.696;2023-05-01T13:52:44;4.70;;;1.50;;
17173;SDS011;8702;48.130;-1.696;2023-05-01T13:55:12;5.00;;;2.03;;
17173;SDS011;8702;48.130;-1.696;2023-05-01T13:57:39;8.30;;;2.40;;
17173;SDS011;8702;48.130;-1.696;2023-05-01T14:00:07;6.93;;;2.10;;
17173;SDS011;8702;48.130;-1.696;2023-05-01T14:02:42;5.53;;;1.97;;
17173;SDS011;8702;48.130;-1.696;2023-05-01T14:05:10;6.23;;;2.23;;
17173;SDS011;8702;48.130;-1.696;2023-05-01T14:07:39;5.87;;;2.33;;
17173;SDS011;8702;48.130;-1.696;2023-05-01T14:10:11;6.33;;;1.67;;
17173;SDS011;8702;48.130;-1.696;2023-05-01T14:12:39;7.53;;;2.37;;
17173;SDS011;8702;48.130;-1.696;2023-05-01T14:15:09;4.70;;;1.80;;
17173;SDS011;8702;48.130;-1.696;2023-05-01T14:17:38;6.80;;;2.07;;
17173;SDS011;8702;48.130;-1.696;2023-05-01T14:20:05;4.67;;;2.10;;
17173;SDS011;8702;48.130;-1.696;2023-05-01T14:22:34;4.87;;;1.90;;
17173;SDS011;8702;48.130;-1.696;2023-05-01T14:25:22;5.47;;;1.80;;
17173;SDS011;8702;48.130;-1.696;2023-05-01T14:27:50;5.57;;;2.20;;
17173;SDS011;8702;48.130;-1.696;2023-05-01T14:30:22;5.03;;;2.20;;
17173;SDS011;8702;48.130;-1.696;2023-05-01T14:32:52;4.87;;;2.00;;
17173;SDS011;8702;48.130;-1.696;2023-05-01T14:35:20;10.23;;;2.47;;
17173;SDS011;8702;48.130;-1.696;2023-05-01T14:37:48;7.57;;;2.17;;
17173;SDS011;8702;48.130;-1.696;2023-05-01T14:40:17;6.33;;;1.90;;
17173;SDS011;8702;48.130;-1.696;2023-05-01T14:42:46;8.23;;;2.37;;
17173;SDS011;8702;48.130;-1.696;2023-05-01T14:45:14;5.93;;;2.20;;
17173;SDS011;8702;48.130;-1.696;2023-05-01T14:47:43;4.97;;;1.80;;
17173;SDS011;8702;48.130;-1.696;2023-05-01T14:50:11;5.37;;;1.80;;
17173;SDS011;8702;48.130;-1.696;2023-05-01T14:52:44;4.53;;;2.10;;
17173;SDS011;8702;48.130;-1.696;2023-05-01T14:55:12;6.93;;;1.73;;
17173;SDS011;8702;48.130;-1.696;2023-05-01T14:57:44;5.73;;;1.80;;
17173;SDS011;8702;48.130;-1.696;2023-05-01T15:00:13;8.40;;;2.30;;
17173;SDS011;8702;48.130;-1.696;2023-05-01T15:02:40;8.63;;;1.87;;
17173;SDS011;8702;48.130;-1.696;2023-05-01T15:05:08;4.07;;;1.47;;
17173;SDS011;8702;48.130;-1.696;2023-05-01T15:07:35;5.90;;;1.90;;
17173;SDS011;8702;48.130;-1.696;2023-05-01T15:10:02;4.07;;;1.87;;
17173;SDS011;8702;48.130;-1.696;2023-05-01T15:12:30;6.70;;;1.90;;
17173;SDS011;8702;48.130;-1.696;2023-05-01T15:14:58;5.50;;;1.80;;